createdAt,value
2022-08-07T00:00:35.856Z,5.00
2022-08-07T00:03:07.109Z,4.20
2022-08-07T00:05:37.047Z,4.13
2022-08-07T00:08:04.971Z,4.40
2022-08-07T00:10:31.922Z,4.63
2022-08-07T00:13:02.178Z,4.22
2022-08-07T00:15:38.501Z,4.00
2022-08-07T00:18:18.694Z,4.20
2022-08-07T00:20:47.724Z,4.15
2022-08-07T00:23:14.899Z,4.20
2022-08-07T00:25:51.722Z,4.20
2022-08-07T00:28:31.774Z,4.20
2022-08-07T00:31:12.416Z,4.28
2022-08-07T00:33:39.955Z,4.13
2022-08-07T00:36:07.778Z,3.72
2022-08-07T00:38:36.721Z,3.83
2022-08-07T00:41:09.986Z,4.00
2022-08-07T00:43:59.021Z,4.32
2022-08-07T00:46:28.439Z,3.85
2022-08-07T00:48:55.453Z,3.20
2022-08-07T00:51:22.335Z,3.33
2022-08-07T00:53:55.974Z,3.90
2022-08-07T00:56:23.586Z,3.60
2022-08-07T00:58:57.491Z,3.50
2022-08-07T01:01:24.669Z,3.25
2022-08-07T01:03:57.126Z,3.25
2022-08-07T01:06:28.801Z,3.15
2022-08-07T01:08:58.305Z,3.50
2022-08-07T01:12:09.828Z,3.50
2022-08-07T01:14:12.774Z,3.22
2022-08-07T01:16:47.335Z,3.67
2022-08-07T01:21:50.197Z,3.88
2022-08-07T01:24:22.293Z,3.58
2022-08-07T01:26:52.171Z,3.78
2022-08-07T01:29:23.248Z,3.65
2022-08-07T01:31:52.379Z,3.60
2022-08-07T01:34:19.713Z,3.83
2022-08-07T01:36:57.997Z,3.88
2022-08-07T01:39:40.534Z,3.60
2022-08-07T01:42:38.433Z,3.58
2022-08-07T01:45:09.822Z,3.63
2022-08-07T01:48:18.568Z,3.33
2022-08-07T01:50:31.162Z,3.55
2022-08-07T01:52:59.190Z,3.78
2022-08-07T01:55:28.700Z,3.63
2022-08-07T01:58:06.338Z,3.88
2022-08-07T02:00:51.614Z,3.30
2022-08-07T02:03:26.576Z,3.45
2022-08-07T02:06:31.577Z,3.63
2022-08-07T02:09:06.288Z,3.58
2022-08-07T02:12:03.747Z,3.45
2022-08-07T02:14:35.879Z,3.78
2022-08-07T02:17:03.994Z,3.22
2022-08-07T02:20:07.846Z,3.67
2022-08-07T02:22:20.752Z,3.67
2022-08-07T02:24:53.310Z,3.60
2022-08-07T02:27:21.925Z,4.10
2022-08-07T02:29:54.508Z,3.65
2022-08-07T02:32:29.833Z,3.60
2022-08-07T02:34:57.928Z,3.60
2022-08-07T02:37:26.974Z,3.42
2022-08-07T02:40:01.998Z,3.60
2022-08-07T02:42:41.595Z,3.47
2022-08-07T02:45:58.269Z,3.85
2022-08-07T02:47:59.138Z,3.55
2022-08-07T02:50:30.836Z,3.58
2022-08-07T02:53:03.609Z,3.45
2022-08-07T02:56:03.179Z,3.78
2022-08-07T02:58:22.899Z,3.40
2022-08-07T03:00:57.389Z,3.70
2022-08-07T03:03:29.532Z,3.33
2022-08-07T03:06:16.337Z,3.70
2022-08-07T03:08:44.464Z,3.70
2022-08-07T03:11:11.356Z,4.03
2022-08-07T03:13:49.971Z,3.30
2022-08-07T03:16:23.058Z,3.40
2022-08-07T03:18:56.417Z,3.70
2022-08-07T03:21:24.485Z,3.50
2022-08-07T03:24:17.989Z,3.17
2022-08-07T03:26:57.985Z,3.80
2022-08-07T03:29:37.885Z,3.40
2022-08-07T03:32:12.879Z,4.05
2022-08-07T03:34:47.155Z,3.63
2022-08-07T03:37:32.850Z,3.55
2022-08-07T03:40:16.451Z,3.22
2022-08-07T03:42:44.063Z,3.25
2022-08-07T03:45:12.767Z,3.50
2022-08-07T03:48:01.422Z,3.50
2022-08-07T03:50:29.078Z,3.53
2022-08-07T03:53:00.373Z,2.95
2022-08-07T03:55:57.978Z,3.15
2022-08-07T03:59:07.238Z,3.20
2022-08-07T04:01:07.631Z,3.03
2022-08-07T04:03:54.039Z,3.60
2022-08-07T04:06:37.660Z,3.20
2022-08-07T04:09:15.700Z,3.13
2022-08-07T04:12:25.747Z,3.08
2022-08-07T04:14:38.026Z,2.83
2022-08-07T04:17:19.810Z,3.05
2022-08-07T04:19:52.093Z,3.10
2022-08-07T04:22:28.933Z,3.10
2022-08-07T04:25:01.705Z,3.10
2022-08-07T04:27:36.161Z,2.70
2022-08-07T04:30:21.439Z,3.05
2022-08-07T04:33:08.289Z,3.00
2022-08-07T04:35:38.570Z,2.80
2022-08-07T04:38:11.433Z,2.92
2022-08-07T04:40:44.068Z,2.75
2022-08-07T04:44:13.118Z,2.95
2022-08-07T04:46:59.502Z,2.83
2022-08-07T04:50:03.495Z,2.88
2022-08-07T04:52:46.938Z,2.80
2022-08-07T04:58:16.700Z,2.70
2022-08-07T04:58:35.001Z,2.67
2022-08-07T05:01:20.907Z,2.90
2022-08-07T05:04:07.556Z,2.72
2022-08-07T05:09:58.766Z,2.75
2022-08-07T05:12:53.636Z,2.90
2022-08-07T05:15:26.803Z,2.70
2022-08-07T05:18:08.590Z,2.70
2022-08-07T05:20:46.885Z,2.67
2022-08-07T05:23:29.064Z,2.88
2022-08-07T05:26:15.225Z,3.00
2022-08-07T05:28:51.475Z,2.83
2022-08-07T05:31:24.105Z,3.10
2022-08-07T05:34:05.420Z,3.20
2022-08-07T05:36:39.130Z,2.83
2022-08-07T05:40:17.166Z,3.00
2022-08-07T05:42:06.375Z,3.03
2022-08-07T05:44:41.535Z,3.33
2022-08-07T05:47:38.608Z,3.35
2022-08-07T05:50:01.702Z,3.30
2022-08-07T05:52:32.722Z,3.30
2022-08-07T05:55:07.036Z,3.38
2022-08-07T05:57:41.955Z,3.17
2022-08-07T06:00:16.532Z,2.92
2022-08-07T06:05:28.221Z,3.10
2022-08-07T06:08:14.612Z,3.35
2022-08-07T06:10:51.217Z,3.20
2022-08-07T06:14:10.538Z,3.28
2022-08-07T06:16:08.007Z,3.53
2022-08-07T06:18:38.358Z,3.30
2022-08-07T06:22:16.833Z,3.42
2022-08-07T06:24:45.720Z,3.97
2022-08-07T06:26:43.300Z,3.10
2022-08-07T06:29:11.133Z,3.22
2022-08-07T06:31:49.639Z,3.50
2022-08-07T06:34:21.456Z,3.05
2022-08-07T06:36:51.949Z,3.70
2022-08-07T06:40:16.703Z,2.85
2022-08-07T06:42:34.874Z,3.72
2022-08-07T06:45:12.500Z,4.43
2022-08-07T06:47:59.013Z,4.07
2022-08-07T06:50:35.967Z,4.75
2022-08-07T06:53:04.790Z,4.43
2022-08-07T06:55:53.723Z,4.95
2022-08-07T06:58:32.214Z,5.00
2022-08-07T07:01:07.102Z,5.20
2022-08-07T07:03:47.951Z,5.20
2022-08-07T07:06:23.749Z,5.43
2022-08-07T07:08:51.100Z,4.90
2022-08-07T07:12:09.096Z,5.63
2022-08-07T07:14:04.807Z,5.30
2022-08-07T07:16:38.898Z,5.07
2022-08-07T07:19:56.513Z,5.32
2022-08-07T07:22:04.939Z,5.03
2022-08-07T07:24:39.846Z,4.95
2022-08-07T07:27:10.561Z,5.10
2022-08-07T07:30:07.540Z,4.97
2022-08-07T07:32:27.391Z,4.82
2022-08-07T07:34:56.332Z,5.07
2022-08-07T07:37:49.604Z,5.20
2022-08-07T07:40:15.688Z,4.57
2022-08-07T07:42:50.862Z,4.95
2022-08-07T07:45:19.439Z,4.55
2022-08-07T07:47:52.287Z,3.40
2022-08-07T07:50:36.038Z,3.33
2022-08-07T07:53:06.383Z,4.45
2022-08-07T07:55:57.533Z,4.70
2022-08-07T07:58:29.817Z,4.70
2022-08-07T08:00:57.637Z,4.38
2022-08-07T08:04:11.128Z,5.10
2022-08-07T08:06:13.096Z,4.70
2022-08-07T08:08:41.861Z,4.60
2022-08-07T08:11:16.100Z,4.80
2022-08-07T08:13:57.024Z,4.90
2022-08-07T08:16:35.275Z,5.00
2022-08-07T08:19:09.932Z,4.75
2022-08-07T08:22:08.188Z,4.97
2022-08-07T08:25:09.427Z,5.53
2022-08-07T08:27:56.551Z,5.13
2022-08-07T08:30:28.610Z,4.95
2022-08-07T08:33:03.737Z,5.40
2022-08-07T08:35:43.048Z,5.10
2022-08-07T08:38:18.114Z,5.57
2022-08-07T08:40:51.238Z,5.25
2022-08-07T08:43:42.031Z,5.47
2022-08-07T08:46:28.769Z,5.45
2022-08-07T08:49:14.869Z,5.63
2022-08-07T08:52:14.437Z,5.80
2022-08-07T08:55:21.103Z,5.70
2022-08-07T08:58:24.840Z,5.22
2022-08-07T09:01:19.222Z,5.40
2022-08-07T09:03:59.259Z,5.28
2022-08-07T09:06:29.654Z,5.03
2022-08-07T09:09:30.247Z,5.50
2022-08-07T09:12:30.800Z,5.30
2022-08-07T09:16:22.880Z,5.47
2022-08-07T09:18:35.003Z,6.40
2022-08-07T09:21:57.795Z,5.85
2022-08-07T09:24:33.304Z,5.60
2022-08-07T09:27:30.855Z,5.82
2022-08-07T09:30:08.017Z,6.28
2022-08-07T09:32:57.367Z,6.00
2022-08-07T09:36:03.025Z,5.60
2022-08-07T09:38:50.108Z,5.93
2022-08-07T09:42:02.994Z,5.68
2022-08-07T09:47:24.928Z,6.05
2022-08-07T09:48:11.677Z,5.38
2022-08-07T09:50:59.503Z,5.32
2022-08-07T09:53:26.699Z,5.18
2022-08-07T09:56:34.049Z,4.70
2022-08-07T09:59:21.940Z,5.38
2022-08-07T10:02:14.508Z,5.47
2022-08-07T10:04:55.021Z,4.75
2022-08-07T10:07:31.611Z,4.90
2022-08-07T10:10:23.246Z,5.00
2022-08-07T10:13:55.470Z,4.80
2022-08-07T10:16:32.186Z,4.40
2022-08-07T10:19:26.835Z,5.03
2022-08-07T10:22:24.994Z,3.72
2022-08-07T10:25:04.009Z,3.42
2022-08-07T10:28:03.064Z,4.20
2022-08-07T10:30:39.342Z,4.30
2022-08-07T10:34:06.569Z,4.40
2022-08-07T10:36:59.062Z,4.20
2022-08-07T10:39:41.910Z,4.97
2022-08-07T10:42:51.399Z,5.15
2022-08-07T10:45:58.129Z,4.78
2022-08-07T10:48:35.047Z,4.30
2022-08-07T10:51:57.423Z,4.72
2022-08-07T10:54:18.815Z,5.20
2022-08-07T10:57:22.275Z,4.50
2022-08-07T11:00:36.998Z,4.13
2022-08-07T11:03:11.298Z,5.10
2022-08-07T11:05:50.666Z,4.90
2022-08-07T11:08:18.441Z,4.50
2022-08-07T11:11:46.224Z,4.88
2022-08-07T11:15:00.288Z,5.38
2022-08-07T11:17:49.899Z,5.50
2022-08-07T11:20:36.172Z,5.45
2022-08-07T11:23:26.349Z,5.20
2022-08-07T11:26:23.282Z,5.03
2022-08-07T11:29:13.095Z,5.05
2022-08-07T11:31:58.344Z,5.32
2022-08-07T11:34:42.370Z,5.40
2022-08-07T11:37:38.159Z,5.07
2022-08-07T11:40:24.012Z,5.53
2022-08-07T11:43:06.200Z,5.47
2022-08-07T11:46:10.966Z,5.50
2022-08-07T11:49:51.392Z,4.93
2022-08-07T11:52:35.539Z,4.95
2022-08-07T11:56:09.383Z,5.13
2022-08-07T11:58:54.743Z,4.82
2022-08-07T12:01:58.708Z,4.90
2022-08-07T12:04:51.722Z,5.10
2022-08-07T12:07:38.582Z,4.70
2022-08-07T12:10:14.867Z,4.72
2022-08-07T12:13:11.503Z,4.60
2022-08-07T12:16:06.081Z,5.20
2022-08-07T12:19:10.628Z,5.20
2022-08-07T12:22:37.218Z,4.95
2022-08-07T12:26:02.761Z,5.07
2022-08-07T12:28:49.801Z,4.53
2022-08-07T12:31:52.706Z,4.63
2022-08-07T12:34:36.358Z,4.25
2022-08-07T12:37:08.775Z,4.75
2022-08-07T12:39:51.052Z,4.57
2022-08-07T12:42:27.571Z,4.60
2022-08-07T12:44:58.878Z,4.25
2022-08-07T12:47:39.717Z,4.10
2022-08-07T12:50:48.716Z,4.28
2022-08-07T12:53:21.863Z,4.20
2022-08-07T12:56:10.037Z,4.35
2022-08-07T12:58:40.303Z,3.92
2022-08-07T13:01:32.503Z,3.50
2022-08-07T13:04:34.098Z,3.47
2022-08-07T13:08:14.055Z,3.47
2022-08-07T13:10:39.391Z,3.90
2022-08-07T13:13:48.280Z,3.65
2022-08-07T13:16:55.167Z,3.88
2022-08-07T13:19:59.798Z,3.97
2022-08-07T13:22:31.022Z,3.83
2022-08-07T13:25:15.111Z,3.40
2022-08-07T13:28:12.757Z,3.78
2022-08-07T13:30:41.343Z,3.65
2022-08-07T13:34:32.696Z,3.58
2022-08-07T13:40:36.430Z,3.60
2022-08-07T13:42:48.779Z,3.28
2022-08-07T13:46:06.821Z,3.13
2022-08-07T13:48:06.202Z,3.28
2022-08-07T13:51:00.291Z,3.08
2022-08-07T13:53:23.918Z,3.63
2022-08-07T13:55:54.629Z,3.05
2022-08-07T13:58:42.796Z,3.33
2022-08-07T14:01:25.042Z,2.88
2022-08-07T14:04:07.053Z,2.88
2022-08-07T14:06:37.159Z,2.80
2022-08-07T14:09:06.396Z,3.22
2022-08-07T14:11:53.849Z,3.13
2022-08-07T14:14:55.161Z,2.88
2022-08-07T14:18:13.193Z,2.90
2022-08-07T14:20:40.130Z,2.80
2022-08-07T14:23:08.572Z,2.80
2022-08-07T14:25:39.569Z,2.53
2022-08-07T14:28:14.969Z,2.50
2022-08-07T14:30:47.167Z,2.55
2022-08-07T14:33:22.242Z,2.50
2022-08-07T14:35:50.067Z,2.50
2022-08-07T14:38:31.397Z,2.38
2022-08-07T14:41:12.444Z,2.40
2022-08-07T14:46:32.036Z,2.50
2022-08-07T14:49:17.417Z,2.47
2022-08-07T14:52:03.138Z,2.50
2022-08-07T14:57:21.111Z,2.42
2022-08-07T15:00:04.557Z,2.42
2022-08-07T15:02:34.537Z,2.38
2022-08-07T15:05:03.052Z,2.75
2022-08-07T15:07:47.327Z,2.53
2022-08-07T15:10:26.616Z,2.47
2022-08-07T15:13:11.570Z,2.80
2022-08-07T15:15:40.756Z,2.53
2022-08-07T15:18:34.069Z,2.30
2022-08-07T15:21:58.884Z,2.38
2022-08-07T15:25:15.069Z,2.30
2022-08-07T15:27:11.996Z,2.28
2022-08-07T15:30:04.603Z,2.33
2022-08-07T15:32:39.939Z,2.40
2022-08-07T15:36:00.528Z,2.47
2022-08-07T15:41:24.074Z,2.30
2022-08-07T15:44:10.707Z,2.13
2022-08-07T15:46:49.916Z,2.00
2022-08-07T15:54:36.149Z,1.77
2022-08-07T15:57:28.347Z,2.22
2022-08-07T16:00:06.671Z,2.00
2022-08-07T16:02:46.554Z,2.03
2022-08-07T16:05:19.250Z,1.80
2022-08-07T16:08:31.123Z,1.83
2022-08-07T16:10:41.257Z,1.92
2022-08-07T16:13:58.098Z,2.00
2022-08-07T16:16:47.884Z,1.70
2022-08-07T16:19:16.937Z,1.80
2022-08-07T16:22:07.277Z,1.73
2022-08-07T16:24:52.862Z,1.60
2022-08-07T16:27:47.445Z,1.90
2022-08-07T16:30:30.817Z,1.85
2022-08-07T16:34:03.156Z,1.70
2022-08-07T16:36:31.344Z,1.67
2022-08-07T16:39:48.613Z,1.60
2022-08-07T16:42:41.602Z,1.60
2022-08-07T16:46:34.638Z,2.22
2022-08-07T16:48:53.763Z,1.65
2022-08-07T16:51:54.111Z,1.70
2022-08-07T16:54:32.543Z,2.58
2022-08-07T16:57:06.234Z,1.70
2022-08-07T17:00:10.950Z,1.50
2022-08-07T17:03:11.340Z,1.60
2022-08-07T17:06:19.159Z,1.40
2022-08-07T17:09:10.797Z,1.63
2022-08-07T17:12:03.921Z,1.50
2022-08-07T17:14:37.710Z,1.70
2022-08-07T17:17:09.836Z,1.50
2022-08-07T17:20:02.088Z,1.38
2022-08-07T17:25:20.019Z,1.50
2022-08-07T17:28:12.414Z,1.50
2022-08-07T17:31:15.583Z,1.30
2022-08-07T17:34:15.256Z,1.50
2022-08-07T17:36:48.963Z,1.50
2022-08-07T17:39:53.014Z,1.30
2022-08-07T17:42:27.100Z,1.42
2022-08-07T17:44:57.231Z,1.40
2022-08-07T17:47:42.609Z,1.40
2022-08-07T17:50:30.335Z,1.50
2022-08-07T17:53:06.063Z,1.60
2022-08-07T17:56:01.360Z,1.90
2022-08-07T17:58:50.171Z,1.40
2022-08-07T18:01:40.911Z,1.23
2022-08-07T18:04:24.693Z,1.42
2022-08-07T18:07:24.704Z,1.40
2022-08-07T18:10:32.450Z,1.65
2022-08-07T18:13:20.607Z,1.58
2022-08-07T18:16:07.359Z,1.60
2022-08-07T18:21:01.390Z,1.60
2022-08-07T18:22:02.733Z,1.40
2022-08-07T18:24:37.954Z,1.50
2022-08-07T18:27:25.407Z,1.40
2022-08-07T18:30:32.977Z,1.30
2022-08-07T18:33:12.134Z,1.50
2022-08-07T18:35:51.875Z,1.50
2022-08-07T18:38:58.896Z,1.60
2022-08-07T18:41:46.013Z,1.60
2022-08-07T18:44:31.961Z,1.65
2022-08-07T18:47:22.459Z,1.60
2022-08-07T18:50:39.534Z,1.45
2022-08-07T18:53:36.996Z,1.45
2022-08-07T18:56:33.873Z,1.85
2022-08-07T18:59:46.823Z,1.80
2022-08-07T19:02:36.467Z,1.90
2022-08-07T19:06:02.202Z,1.85
2022-08-07T19:08:31.328Z,1.80
2022-08-07T19:11:02.535Z,1.73
2022-08-07T19:14:00.735Z,1.80
2022-08-07T19:17:04.718Z,1.80
2022-08-07T19:19:56.950Z,1.80
2022-08-07T19:22:47.168Z,2.10
2022-08-07T19:26:23.122Z,1.77
2022-08-07T19:28:56.736Z,1.80
2022-08-07T19:31:39.652Z,1.70
2022-08-07T19:33:46.727Z,1.80
2022-08-07T19:36:27.750Z,2.00
2022-08-07T19:38:57.175Z,1.90
2022-08-07T19:41:44.138Z,1.90
2022-08-07T19:44:21.459Z,2.00
2022-08-07T19:46:55.734Z,1.85
2022-08-07T19:49:57.097Z,1.92
2022-08-07T19:52:27.482Z,2.05
2022-08-07T19:54:58.251Z,2.10
2022-08-07T19:58:00.289Z,1.80
2022-08-07T20:03:35.079Z,1.90
2022-08-07T20:06:04.539Z,2.25
2022-08-07T20:08:36.790Z,1.95
2022-08-07T20:11:09.611Z,1.98
2022-08-07T20:13:57.152Z,1.92
2022-08-07T20:16:35.189Z,2.00
2022-08-07T20:19:05.294Z,1.80
2022-08-07T20:21:46.762Z,1.98
2022-08-07T20:24:28.684Z,2.00
2022-08-07T20:29:49.574Z,2.03
2022-08-07T20:32:25.262Z,1.80
2022-08-07T20:34:54.528Z,1.90
2022-08-07T20:37:33.738Z,1.80
2022-08-07T20:40:05.085Z,2.58
2022-08-07T20:42:56.272Z,2.45
2022-08-07T20:45:32.928Z,2.22
2022-08-07T20:48:11.499Z,2.38
2022-08-07T20:51:01.365Z,2.42
2022-08-07T20:54:02.348Z,2.42
2022-08-07T20:56:16.166Z,2.20
2022-08-07T20:58:44.383Z,2.53
2022-08-07T21:01:19.603Z,2.80
2022-08-07T21:04:18.628Z,2.60
2022-08-07T21:06:38.090Z,2.67
2022-08-07T21:09:14.029Z,2.88
2022-08-07T21:14:32.719Z,2.60
2022-08-07T21:18:02.034Z,2.95
2022-08-07T21:20:04.824Z,2.60
2022-08-07T21:22:45.142Z,2.63
2022-08-07T21:25:42.596Z,2.80
2022-08-07T21:31:15.133Z,2.40
2022-08-07T21:33:50.941Z,2.43
2022-08-07T21:36:32.111Z,2.33
2022-08-07T21:39:45.251Z,2.78
2022-08-07T21:42:46.630Z,2.40
2022-08-07T21:46:03.795Z,2.60
2022-08-07T21:48:42.660Z,3.28
2022-08-07T21:51:24.912Z,2.38
2022-08-07T21:53:54.123Z,2.47
2022-08-07T21:56:47.108Z,2.58
2022-08-07T22:00:05.207Z,1.92
2022-08-07T22:02:43.506Z,2.30
2022-08-07T22:05:22.137Z,2.28
2022-08-07T22:08:10.271Z,2.30
2022-08-07T22:10:37.672Z,2.70
2022-08-07T22:13:13.608Z,2.50
2022-08-07T22:16:44.838Z,2.50
2022-08-07T22:19:07.481Z,2.67
2022-08-07T22:22:27.591Z,2.58
2022-08-07T22:25:11.110Z,2.10
2022-08-07T22:28:20.129Z,2.35
2022-08-07T22:30:59.472Z,2.40
2022-08-07T22:33:52.766Z,2.60
2022-08-07T22:37:02.395Z,2.38
2022-08-07T22:39:53.024Z,2.40
2022-08-07T22:42:25.795Z,2.58
2022-08-07T22:44:58.749Z,2.67
2022-08-07T22:48:04.225Z,3.33
2022-08-07T22:51:04.404Z,3.00
2022-08-07T22:54:07.582Z,2.63
2022-08-07T22:57:07.260Z,2.65
2022-08-07T23:00:13.198Z,2.90
2022-08-07T23:02:48.302Z,2.78
2022-08-07T23:06:10.153Z,2.80
2022-08-07T23:08:54.540Z,3.10
2022-08-07T23:11:44.315Z,2.83
2022-08-07T23:14:40.333Z,2.70
2022-08-07T23:17:42.284Z,2.80
2022-08-07T23:20:51.202Z,2.90
2022-08-07T23:24:06.588Z,2.63
2022-08-07T23:27:12.946Z,3.00
2022-08-07T23:30:37.523Z,2.90
2022-08-07T23:34:33.303Z,2.90
2022-08-07T23:36:37.237Z,3.22
2022-08-07T23:39:09.835Z,2.90
2022-08-07T23:42:05.153Z,3.22
2022-08-07T23:45:03.358Z,3.00
2022-08-07T23:48:02.685Z,3.70
2022-08-07T23:50:54.441Z,3.17
2022-08-07T23:53:49.965Z,3.00
2022-08-07T23:56:53.467Z,3.08
